sensor_id;sensor_type;location;lat;lon;timestamp;temperature;humidity
19862;DHT22;10093;48.148;8.542;2023-05-10T00:01:55;11.50;99.90
19862;DHT22;10093;48.148;8.542;2023-05-10T00:04:21;11.40;99.90
19862;DHT22;10093;48.148;8.542;2023-05-10T00:06:46;11.50;99.90
19862;DHT22;10093;48.148;8.542;2023-05-10T00:09:12;11.40;99.90
19862;DHT22;10093;48.148;8.542;2023-05-10T00:11:38;11.30;99.90
19862;DHT22;10093;48.148;8.542;2023-05-10T00:14:03;11.20;99.90
19862;DHT22;10093;48.148;8.542;2023-05-10T00:16:29;11.10;99.90
19862;DHT22;10093;48.148;8.542;2023-05-10T00:18:54;11.20;99.90
19862;DHT22;10093;48.148;8.542;2023-05-10T00:21:20;11.20;99.90
19862;DHT22;10093;48.148;8.542;2023-05-10T00:23:45;11.00;99.90
19862;DHT22;10093;48.148;8.542;2023-05-10T00:26:11;11.00;99.90
19862;DHT22;10093;48.148;8.542;2023-05-10T00:28:37;10.90;99.90
19862;DHT22;10093;48.148;8.542;2023-05-10T00:31:02;11.00;99.90
19862;DHT22;10093;48.148;8.542;2023-05-10T00:33:28;10.90;99.90
19862;DHT22;10093;48.148;8.542;2023-05-10T00:35:54;10.90;99.90
19862;DHT22;10093;48.148;8.542;2023-05-10T00:38:19;10.80;99.90
19862;DHT22;10093;48.148;8.542;2023-05-10T00:40:45;10.70;99.90
19862;DHT22;10093;48.148;8.542;2023-05-10T00:43:10;10.60;99.90
19862;DHT22;10093;48.148;8.542;2023-05-10T00:45:36;10.60;99.90
19862;DHT22;10093;48.148;8.542;2023-05-10T00:48:03;10.60;99.90
19862;DHT22;10093;48.148;8.542;2023-05-10T00:50:30;10.50;99.90
19862;DHT22;10093;48.148;8.542;2023-05-10T00:52:56;10.60;99.90
19862;DHT22;10093;48.148;8.542;2023-05-10T00:55:23;10.60;99.90
19862;DHT22;10093;48.148;8.542;2023-05-10T00:57:49;10.70;99.90
19862;DHT22;10093;48.148;8.542;2023-05-10T01:00:15;10.70;99.90
19862;DHT22;10093;48.148;8.542;2023-05-10T01:02:44;10.70;99.90
19862;DHT22;10093;48.148;8.542;2023-05-10T01:05:10;10.80;99.90
19862;DHT22;10093;48.148;8.542;2023-05-10T01:07:36;10.60;99.90
19862;DHT22;10093;48.148;8.542;2023-05-10T01:10:02;10.60;99.90
19862;DHT22;10093;48.148;8.542;2023-05-10T01:12:28;10.50;99.90
19862;DHT22;10093;48.148;8.542;2023-05-10T01:14:54;10.30;99.90
19862;DHT22;10093;48.148;8.542;2023-05-10T01:17:21;10.20;99.90
19862;DHT22;10093;48.148;8.542;2023-05-10T01:19:47;10.20;99.90
19862;DHT22;10093;48.148;8.542;2023-05-10T01:27:45;10.00;99.90
19862;DHT22;10093;48.148;8.542;2023-05-10T01:33:52;9.90;99.90
19862;DHT22;10093;48.148;8.542;2023-05-10T01:36:26;9.80;99.90
19862;DHT22;10093;48.148;8.542;2023-05-10T01:39:23;9.80;99.90
19862;DHT22;10093;48.148;8.542;2023-05-10T01:41:58;9.80;99.90
19862;DHT22;10093;48.148;8.542;2023-05-10T01:44:35;9.80;99.90
19862;DHT22;10093;48.148;8.542;2023-05-10T01:47:04;9.80;99.90
19862;DHT22;10093;48.148;8.542;2023-05-10T01:49:34;9.80;99.90
19862;DHT22;10093;48.148;8.542;2023-05-10T01:52:14;10.00;99.90
19862;DHT22;10093;48.148;8.542;2023-05-10T01:55:00;10.00;99.90
19862;DHT22;10093;48.148;8.542;2023-05-10T01:57:32;10.00;99.90
19862;DHT22;10093;48.148;8.542;2023-05-10T01:59:59;10.00;99.90
19862;DHT22;10093;48.148;8.542;2023-05-10T02:02:27;9.90;99.90
19862;DHT22;10093;48.148;8.542;2023-05-10T02:04:55;9.90;99.90
19862;DHT22;10093;48.148;8.542;2023-05-10T02:07:23;10.00;99.90
19862;DHT22;10093;48.148;8.542;2023-05-10T02:09:49;10.00;99.90
19862;DHT22;10093;48.148;8.542;2023-05-10T02:12:16;10.00;99.90
19862;DHT22;10093;48.148;8.542;2023-05-10T02:14:44;10.00;99.90
19862;DHT22;10093;48.148;8.542;2023-05-10T02:17:11;10.10;99.90
19862;DHT22;10093;48.148;8.542;2023-05-10T02:19:40;10.10;99.90
19862;DHT22;10093;48.148;8.542;2023-05-10T02:22:06;10.20;99.90
19862;DHT22;10093;48.148;8.542;2023-05-10T02:24:34;10.10;99.90
19862;DHT22;10093;48.148;8.542;2023-05-10T02:27:03;10.00;99.90
19862;DHT22;10093;48.148;8.542;2023-05-10T02:29:29;10.00;99.90
19862;DHT22;10093;48.148;8.542;2023-05-10T02:31:55;10.00;99.90
19862;DHT22;10093;48.148;8.542;2023-05-10T02:34:23;10.00;99.90
19862;DHT22;10093;48.148;8.542;2023-05-10T02:36:51;9.90;99.90
19862;DHT22;10093;48.148;8.542;2023-05-10T02:39:19;10.00;99.90
19862;DHT22;10093;48.148;8.542;2023-05-10T02:41:47;10.00;99.90
19862;DHT22;10093;48.148;8.542;2023-05-10T02:44:15;10.00;99.90
19862;DHT22;10093;48.148;8.542;2023-05-10T02:46:42;10.00;99.90
19862;DHT22;10093;48.148;8.542;2023-05-10T02:49:08;9.90;99.90
19862;DHT22;10093;48.148;8.542;2023-05-10T02:51:36;9.90;99.90
19862;DHT22;10093;48.148;8.542;2023-05-10T02:54:09;9.90;99.90
19862;DHT22;10093;48.148;8.542;2023-05-10T02:56:40;9.90;99.90
19862;DHT22;10093;48.148;8.542;2023-05-10T02:59:06;9.80;99.90
19862;DHT22;10093;48.148;8.542;2023-05-10T03:01:32;9.90;99.90
19862;DHT22;10093;48.148;8.542;2023-05-10T03:03:57;9.80;99.90
19862;DHT22;10093;48.148;8.542;2023-05-10T03:06:23;9.80;99.90
19862;DHT22;10093;48.148;8.542;2023-05-10T03:08:49;9.80;99.90
19862;DHT22;10093;48.148;8.542;2023-05-10T03:16:32;9.70;99.90
19862;DHT22;10093;48.148;8.542;2023-05-10T03:21:41;9.70;99.90
19862;DHT22;10093;48.148;8.542;2023-05-10T03:24:09;9.80;99.90
19862;DHT22;10093;48.148;8.542;2023-05-10T03:26:37;9.70;99.90
19862;DHT22;10093;48.148;8.542;2023-05-10T03:29:05;9.70;99.90
19862;DHT22;10093;48.148;8.542;2023-05-10T03:31:32;9.60;99.90
19862;DHT22;10093;48.148;8.542;2023-05-10T03:33:57;9.60;99.90
19862;DHT22;10093;48.148;8.542;2023-05-10T03:36:23;9.60;99.90
19862;DHT22;10093;48.148;8.542;2023-05-10T03:38:49;9.70;99.90
19862;DHT22;10093;48.148;8.542;2023-05-10T03:41:14;9.70;99.90
19862;DHT22;10093;48.148;8.542;2023-05-10T03:43:40;9.70;99.90
19862;DHT22;10093;48.148;8.542;2023-05-10T03:46:06;9.70;99.90
19862;DHT22;10093;48.148;8.542;2023-05-10T03:48:32;9.70;99.90
19862;DHT22;10093;48.148;8.542;2023-05-10T03:50:58;9.70;99.90
19862;DHT22;10093;48.148;8.542;2023-05-10T03:53:24;9.80;99.90
19862;DHT22;10093;48.148;8.542;2023-05-10T03:55:50;9.80;99.90
19862;DHT22;10093;48.148;8.542;2023-05-10T03:58:15;9.80;99.90
19862;DHT22;10093;48.148;8.542;2023-05-10T04:00:41;9.80;99.90
19862;DHT22;10093;48.148;8.542;2023-05-10T04:03:12;9.80;99.90
19862;DHT22;10093;48.148;8.542;2023-05-10T04:05:38;9.80;99.90
19862;DHT22;10093;48.148;8.542;2023-05-10T04:08:04;9.80;99.90
19862;DHT22;10093;48.148;8.542;2023-05-10T04:10:30;9.80;99.90
19862;DHT22;10093;48.148;8.542;2023-05-10T04:12:56;9.80;99.90
19862;DHT22;10093;48.148;8.542;2023-05-10T04:15:22;9.90;99.90
19862;DHT22;10093;48.148;8.542;2023-05-10T04:17:47;9.90;99.90
19862;DHT22;10093;48.148;8.542;2023-05-10T04:20:13;9.80;99.90
19862;DHT22;10093;48.148;8.542;2023-05-10T04:22:39;9.80;99.90
19862;DHT22;10093;48.148;8.542;2023-05-10T04:25:05;9.80;99.90
19862;DHT22;10093;48.148;8.542;2023-05-10T04:27:31;9.80;99.90
19862;DHT22;10093;48.148;8.542;2023-05-10T04:29:57;9.90;99.90
19862;DHT22;10093;48.148;8.542;2023-05-10T04:32:23;9.90;99.90
19862;DHT22;10093;48.148;8.542;2023-05-10T04:34:49;10.00;99.90
19862;DHT22;10093;48.148;8.542;2023-05-10T04:37:16;10.00;99.90
19862;DHT22;10093;48.148;8.542;2023-05-10T04:39:41;10.00;99.90
19862;DHT22;10093;48.148;8.542;2023-05-10T04:42:07;10.00;99.90
19862;DHT22;10093;48.148;8.542;2023-05-10T04:44:33;10.10;99.90
19862;DHT22;10093;48.148;8.542;2023-05-10T04:46:58;10.20;99.90
19862;DHT22;10093;48.148;8.542;2023-05-10T04:49:24;10.40;99.90
19862;DHT22;10093;48.148;8.542;2023-05-10T04:51:50;10.60;99.90
19862;DHT22;10093;48.148;8.542;2023-05-10T04:54:15;10.60;99.90
19862;DHT22;10093;48.148;8.542;2023-05-10T04:56:41;10.60;99.90
19862;DHT22;10093;48.148;8.542;2023-05-10T04:59:07;10.70;99.90
19862;DHT22;10093;48.148;8.542;2023-05-10T05:01:32;10.80;99.90
19862;DHT22;10093;48.148;8.542;2023-05-10T05:03:58;10.80;99.90
19862;DHT22;10093;48.148;8.542;2023-05-10T05:06:24;10.70;99.90
19862;DHT22;10093;48.148;8.542;2023-05-10T05:08:50;10.50;99.90
19862;DHT22;10093;48.148;8.542;2023-05-10T05:11:17;10.50;99.90
19862;DHT22;10093;48.148;8.542;2023-05-10T05:13:43;10.60;99.90
19862;DHT22;10093;48.148;8.542;2023-05-10T05:16:09;10.60;99.90
19862;DHT22;10093;48.148;8.542;2023-05-10T05:18:35;10.50;99.90
19862;DHT22;10093;48.148;8.542;2023-05-10T05:21:00;10.60;99.90
19862;DHT22;10093;48.148;8.542;2023-05-10T05:23:26;10.70;99.90
19862;DHT22;10093;48.148;8.542;2023-05-10T05:25:52;10.70;99.90
19862;DHT22;10093;48.148;8.542;2023-05-10T05:28:22;10.80;99.90
19862;DHT22;10093;48.148;8.542;2023-05-10T05:30:47;10.60;99.90
19862;DHT22;10093;48.148;8.542;2023-05-10T05:33:13;10.60;99.90
19862;DHT22;10093;48.148;8.542;2023-05-10T05:35:40;10.50;99.90
19862;DHT22;10093;48.148;8.542;2023-05-10T05:38:06;10.50;99.90
19862;DHT22;10093;48.148;8.542;2023-05-10T05:40:32;10.80;99.90
19862;DHT22;10093;48.148;8.542;2023-05-10T05:42:57;10.90;99.90
19862;DHT22;10093;48.148;8.542;2023-05-10T05:45:23;11.10;99.90
19862;DHT22;10093;48.148;8.542;2023-05-10T05:47:48;11.30;99.90
19862;DHT22;10093;48.148;8.542;2023-05-10T05:50:14;11.60;99.90
19862;DHT22;10093;48.148;8.542;2023-05-10T05:52:40;11.50;99.90
19862;DHT22;10093;48.148;8.542;2023-05-10T05:55:06;11.40;99.90
19862;DHT22;10093;48.148;8.542;2023-05-10T05:57:31;11.30;99.90
19862;DHT22;10093;48.148;8.542;2023-05-10T05:59:57;11.40;99.90
19862;DHT22;10093;48.148;8.542;2023-05-10T06:02:23;11.30;99.90
19862;DHT22;10093;48.148;8.542;2023-05-10T06:04:48;11.50;99.90
19862;DHT22;10093;48.148;8.542;2023-05-10T06:07:14;11.60;99.90
19862;DHT22;10093;48.148;8.542;2023-05-10T06:09:39;11.70;99.90
19862;DHT22;10093;48.148;8.542;2023-05-10T06:12:05;11.90;99.90
19862;DHT22;10093;48.148;8.542;2023-05-10T06:14:30;12.30;99.90
19862;DHT22;10093;48.148;8.542;2023-05-10T06:16:56;12.50;99.90
19862;DHT22;10093;48.148;8.542;2023-05-10T06:19:22;12.60;99.90
19862;DHT22;10093;48.148;8.542;2023-05-10T06:21:48;12.60;99.90
19862;DHT22;10093;48.148;8.542;2023-05-10T06:24:13;12.70;99.90
19862;DHT22;10093;48.148;8.542;2023-05-10T06:26:39;12.80;99.90
19862;DHT22;10093;48.148;8.542;2023-05-10T06:29:04;13.00;99.90
19862;DHT22;10093;48.148;8.542;2023-05-10T06:31:30;13.20;99.90
19862;DHT22;10093;48.148;8.542;2023-05-10T06:33:56;13.40;99.90
19862;DHT22;10093;48.148;8.542;2023-05-10T06:36:21;13.50;99.90
19862;DHT22;10093;48.148;8.542;2023-05-10T06:38:47;13.50;99.90
19862;DHT22;10093;48.148;8.542;2023-05-10T06:41:13;13.60;99.90
19862;DHT22;10093;48.148;8.542;2023-05-10T06:43:38;13.60;99.90
19862;DHT22;10093;48.148;8.542;2023-05-10T06:46:06;13.20;99.90
19862;DHT22;10093;48.148;8.542;2023-05-10T06:48:32;12.80;99.90
19862;DHT22;10093;48.148;8.542;2023-05-10T06:50:58;12.60;99.90
19862;DHT22;10093;48.148;8.542;2023-05-10T06:53:23;12.50;99.90
19862;DHT22;10093;48.148;8.542;2023-05-10T06:55:49;12.30;99.90
19862;DHT22;10093;48.148;8.542;2023-05-10T06:58:15;12.20;99.90
19862;DHT22;10093;48.148;8.542;2023-05-10T07:00:41;12.10;99.90
19862;DHT22;10093;48.148;8.542;2023-05-10T07:03:11;12.00;99.90
19862;DHT22;10093;48.148;8.542;2023-05-10T07:05:37;12.20;99.90
19862;DHT22;10093;48.148;8.542;2023-05-10T07:08:03;11.90;99.90
19862;DHT22;10093;48.148;8.542;2023-05-10T07:10:28;11.50;99.90
19862;DHT22;10093;48.148;8.542;2023-05-10T07:12:54;11.40;99.90
19862;DHT22;10093;48.148;8.542;2023-05-10T07:15:20;11.30;99.90
19862;DHT22;10093;48.148;8.542;2023-05-10T07:17:45;11.20;99.90
19862;DHT22;10093;48.148;8.542;2023-05-10T07:20:11;11.10;99.90
19862;DHT22;10093;48.148;8.542;2023-05-10T07:22:37;11.20;99.90
19862;DHT22;10093;48.148;8.542;2023-05-10T07:25:03;11.20;99.90
19862;DHT22;10093;48.148;8.542;2023-05-10T07:27:28;11.10;99.90
19862;DHT22;10093;48.148;8.542;2023-05-10T07:29:54;10.90;99.90
19862;DHT22;10093;48.148;8.542;2023-05-10T07:32:20;10.90;99.90
19862;DHT22;10093;48.148;8.542;2023-05-10T07:34:46;10.90;99.90
19862;DHT22;10093;48.148;8.542;2023-05-10T07:37:12;11.10;99.90
19862;DHT22;10093;48.148;8.542;2023-05-10T07:39:38;11.50;99.90
19862;DHT22;10093;48.148;8.542;2023-05-10T07:42:03;11.90;99.90
19862;DHT22;10093;48.148;8.542;2023-05-10T07:44:29;12.10;99.90
19862;DHT22;10093;48.148;8.542;2023-05-10T07:46:55;12.20;99.90
19862;DHT22;10093;48.148;8.542;2023-05-10T07:49:21;12.40;99.90
19862;DHT22;10093;48.148;8.542;2023-05-10T07:51:49;12.60;99.90
19862;DHT22;10093;48.148;8.542;2023-05-10T07:54:15;12.50;99.90
19862;DHT22;10093;48.148;8.542;2023-05-10T07:56:41;12.90;99.90
19862;DHT22;10093;48.148;8.542;2023-05-10T07:59:15;13.00;99.90
19862;DHT22;10093;48.148;8.542;2023-05-10T08:01:41;13.30;99.90
19862;DHT22;10093;48.148;8.542;2023-05-10T08:04:06;13.30;99.90
19862;DHT22;10093;48.148;8.542;2023-05-10T08:06:32;13.20;99.90
19862;DHT22;10093;48.148;8.542;2023-05-10T08:08:58;13.00;99.90
19862;DHT22;10093;48.148;8.542;2023-05-10T08:11:24;13.00;99.90
19862;DHT22;10093;48.148;8.542;2023-05-10T08:13:50;12.90;99.90
19862;DHT22;10093;48.148;8.542;2023-05-10T08:16:17;13.00;99.90
19862;DHT22;10093;48.148;8.542;2023-05-10T08:18:43;13.00;99.90
19862;DHT22;10093;48.148;8.542;2023-05-10T08:21:10;12.90;99.90
19862;DHT22;10093;48.148;8.542;2023-05-10T08:23:37;13.00;99.90
19862;DHT22;10093;48.148;8.542;2023-05-10T08:26:02;13.00;99.90
19862;DHT22;10093;48.148;8.542;2023-05-10T08:28:28;13.10;99.90
19862;DHT22;10093;48.148;8.542;2023-05-10T08:30:54;13.40;99.90
19862;DHT22;10093;48.148;8.542;2023-05-10T08:33:19;13.50;99.90
19862;DHT22;10093;48.148;8.542;2023-05-10T08:35:45;13.80;99.90
19862;DHT22;10093;48.148;8.542;2023-05-10T08:38:11;14.10;99.90
19862;DHT22;10093;48.148;8.542;2023-05-10T08:40:38;14.20;99.90
19862;DHT22;10093;48.148;8.542;2023-05-10T08:43:08;14.40;99.90
19862;DHT22;10093;48.148;8.542;2023-05-10T08:45:38;14.70;99.90
19862;DHT22;10093;48.148;8.542;2023-05-10T08:48:06;15.00;99.90
19862;DHT22;10093;48.148;8.542;2023-05-10T08:50:37;14.70;99.90
19862;DHT22;10093;48.148;8.542;2023-05-10T08:53:13;15.10;99.90
19862;DHT22;10093;48.148;8.542;2023-05-10T08:55:40;15.50;99.90
19862;DHT22;10093;48.148;8.542;2023-05-10T08:58:08;15.90;99.90
19862;DHT22;10093;48.148;8.542;2023-05-10T09:00:34;16.80;99.90
19862;DHT22;10093;48.148;8.542;2023-05-10T09:03:02;17.70;99.90
19862;DHT22;10093;48.148;8.542;2023-05-10T09:05:28;18.50;99.90
19862;DHT22;10093;48.148;8.542;2023-05-10T09:07:53;18.40;99.90
19862;DHT22;10093;48.148;8.542;2023-05-10T09:10:20;18.20;99.90
19862;DHT22;10093;48.148;8.542;2023-05-10T09:12:46;17.50;99.90
19862;DHT22;10093;48.148;8.542;2023-05-10T09:15:15;17.80;99.90
19862;DHT22;10093;48.148;8.542;2023-05-10T09:17:42;17.70;99.90
19862;DHT22;10093;48.148;8.542;2023-05-10T09:20:08;17.90;99.90
19862;DHT22;10093;48.148;8.542;2023-05-10T09:22:34;18.50;99.90
19862;DHT22;10093;48.148;8.542;2023-05-10T09:25:13;18.70;99.90
19862;DHT22;10093;48.148;8.542;2023-05-10T09:27:40;18.90;99.90
19862;DHT22;10093;48.148;8.542;2023-05-10T09:30:07;18.70;99.90
19862;DHT22;10093;48.148;8.542;2023-05-10T09:32:38;18.60;99.90
19862;DHT22;10093;48.148;8.542;2023-05-10T09:35:11;18.50;99.90
19862;DHT22;10093;48.148;8.542;2023-05-10T09:37:42;18.60;99.90
19862;DHT22;10093;48.148;8.542;2023-05-10T09:40:12;19.10;99.90
19862;DHT22;10093;48.148;8.542;2023-05-10T09:42:38;19.90;99.90
19862;DHT22;10093;48.148;8.542;2023-05-10T09:45:04;19.60;99.90
19862;DHT22;10093;48.148;8.542;2023-05-10T09:47:34;19.20;99.90
19862;DHT22;10093;48.148;8.542;2023-05-10T09:50:00;18.90;99.90
19862;DHT22;10093;48.148;8.542;2023-05-10T09:52:29;18.60;99.90
19862;DHT22;10093;48.148;8.542;2023-05-10T09:54:55;18.00;99.90
19862;DHT22;10093;48.148;8.542;2023-05-10T09:57:22;17.60;99.90
19862;DHT22;10093;48.148;8.542;2023-05-10T09:59:48;17.70;99.90
19862;DHT22;10093;48.148;8.542;2023-05-10T10:02:13;17.70;99.90
19862;DHT22;10093;48.148;8.542;2023-05-10T10:04:40;17.60;99.90
19862;DHT22;10093;48.148;8.542;2023-05-10T10:07:06;17.60;99.90
19862;DHT22;10093;48.148;8.542;2023-05-10T10:09:33;17.50;99.90
19862;DHT22;10093;48.148;8.542;2023-05-10T10:12:03;17.80;99.90
19862;DHT22;10093;48.148;8.542;2023-05-10T10:14:29;17.50;99.90
19862;DHT22;10093;48.148;8.542;2023-05-10T10:16:55;17.10;99.90
19862;DHT22;10093;48.148;8.542;2023-05-10T10:19:21;17.00;99.90
19862;DHT22;10093;48.148;8.542;2023-05-10T10:21:49;16.90;99.90
19862;DHT22;10093;48.148;8.542;2023-05-10T10:24:15;16.80;99.90
19862;DHT22;10093;48.148;8.542;2023-05-10T10:26:42;16.70;99.90
19862;DHT22;10093;48.148;8.542;2023-05-10T10:29:31;16.30;99.90
19862;DHT22;10093;48.148;8.542;2023-05-10T10:32:22;15.90;99.90
19862;DHT22;10093;48.148;8.542;2023-05-10T10:34:50;15.40;99.90
19862;DHT22;10093;48.148;8.542;2023-05-10T10:37:15;14.60;99.90
19862;DHT22;10093;48.148;8.542;2023-05-10T10:39:41;13.70;99.90
19862;DHT22;10093;48.148;8.542;2023-05-10T10:42:07;13.20;99.90
19862;DHT22;10093;48.148;8.542;2023-05-10T10:47:21;12.30;99.90
19862;DHT22;10093;48.148;8.542;2023-05-10T10:50:04;11.80;99.90
19862;DHT22;10093;48.148;8.542;2023-05-10T10:55:13;11.50;99.90
19862;DHT22;10093;48.148;8.542;2023-05-10T10:57:51;11.40;99.90
19862;DHT22;10093;48.148;8.542;2023-05-10T11:07:55;11.90;99.90
19862;DHT22;10093;48.148;8.542;2023-05-10T11:10:25;11.90;99.90
19862;DHT22;10093;48.148;8.542;2023-05-10T11:13:01;12.30;99.90
19862;DHT22;10093;48.148;8.542;2023-05-10T11:15:32;12.20;99.90
19862;DHT22;10093;48.148;8.542;2023-05-10T11:17:58;12.30;99.90
19862;DHT22;10093;48.148;8.542;2023-05-10T11:20:27;12.60;99.90
19862;DHT22;10093;48.148;8.542;2023-05-10T11:23:10;13.00;99.90
19862;DHT22;10093;48.148;8.542;2023-05-10T11:25:44;13.10;99.90
19862;DHT22;10093;48.148;8.542;2023-05-10T11:28:10;13.60;99.90
19862;DHT22;10093;48.148;8.542;2023-05-10T11:30:40;14.40;99.90
19862;DHT22;10093;48.148;8.542;2023-05-10T11:33:06;15.20;99.90
19862;DHT22;10093;48.148;8.542;2023-05-10T11:35:41;15.80;99.90
19862;DHT22;10093;48.148;8.542;2023-05-10T11:38:08;17.10;99.90
19862;DHT22;10093;48.148;8.542;2023-05-10T11:40:34;17.50;99.90
19862;DHT22;10093;48.148;8.542;2023-05-10T11:43:00;18.20;99.90
19862;DHT22;10093;48.148;8.542;2023-05-10T11:45:26;18.20;99.90
19862;DHT22;10093;48.148;8.542;2023-05-10T11:47:54;18.10;99.90
19862;DHT22;10093;48.148;8.542;2023-05-10T11:50:20;17.20;99.90
19862;DHT22;10093;48.148;8.542;2023-05-10T11:52:50;18.30;99.90
19862;DHT22;10093;48.148;8.542;2023-05-10T11:55:16;18.90;99.90
19862;DHT22;10093;48.148;8.542;2023-05-10T11:57:42;19.10;99.90
19862;DHT22;10093;48.148;8.542;2023-05-10T12:00:10;17.50;99.90
19862;DHT22;10093;48.148;8.542;2023-05-10T12:02:36;18.20;99.90
19862;DHT22;10093;48.148;8.542;2023-05-10T12:05:03;19.50;99.90
19862;DHT22;10093;48.148;8.542;2023-05-10T12:07:29;19.90;99.90
19862;DHT22;10093;48.148;8.542;2023-05-10T12:10:11;19.90;99.90
19862;DHT22;10093;48.148;8.542;2023-05-10T12:12:41;20.20;99.90
19862;DHT22;10093;48.148;8.542;2023-05-10T12:15:21;20.00;99.90
19862;DHT22;10093;48.148;8.542;2023-05-10T12:17:48;19.60;99.90
19862;DHT22;10093;48.148;8.542;2023-05-10T12:25:12;19.70;99.90
19862;DHT22;10093;48.148;8.542;2023-05-10T12:27:38;19.10;99.90
19862;DHT22;10093;48.148;8.542;2023-05-10T12:30:04;18.60;99.90
19862;DHT22;10093;48.148;8.542;2023-05-10T12:32:40;18.10;99.90
19862;DHT22;10093;48.148;8.542;2023-05-10T12:35:07;18.00;99.90
19862;DHT22;10093;48.148;8.542;2023-05-10T12:37:32;17.80;99.90
19862;DHT22;10093;48.148;8.542;2023-05-10T12:40:01;17.40;99.90
19862;DHT22;10093;48.148;8.542;2023-05-10T12:42:28;17.00;99.90
19862;DHT22;10093;48.148;8.542;2023-05-10T12:44:56;16.60;99.90
19862;DHT22;10093;48.148;8.542;2023-05-10T12:47:21;17.00;99.90
19862;DHT22;10093;48.148;8.542;2023-05-10T12:49:47;18.20;99.90
19862;DHT22;10093;48.148;8.542;2023-05-10T12:52:13;18.50;99.90
19862;DHT22;10093;48.148;8.542;2023-05-10T12:54:38;19.10;99.90
19862;DHT22;10093;48.148;8.542;2023-05-10T12:57:04;19.40;99.90
19862;DHT22;10093;48.148;8.542;2023-05-10T12:59:30;18.60;99.90
19862;DHT22;10093;48.148;8.542;2023-05-10T13:01:57;18.50;99.90
19862;DHT22;10093;48.148;8.542;2023-05-10T13:04:23;18.40;99.90
19862;DHT22;10093;48.148;8.542;2023-05-10T13:06:48;18.80;99.90
19862;DHT22;10093;48.148;8.542;2023-05-10T13:09:14;19.20;99.90
19862;DHT22;10093;48.148;8.542;2023-05-10T13:11:40;18.60;99.90
19862;DHT22;10093;48.148;8.542;2023-05-10T13:14:06;18.50;99.90
19862;DHT22;10093;48.148;8.542;2023-05-10T13:16:32;18.10;99.90
19862;DHT22;10093;48.148;8.542;2023-05-10T13:18:57;17.50;99.90
19862;DHT22;10093;48.148;8.542;2023-05-10T13:21:23;17.40;99.90
19862;DHT22;10093;48.148;8.542;2023-05-10T13:23:50;16.90;99.90
19862;DHT22;10093;48.148;8.542;2023-05-10T13:26:16;15.60;99.90
19862;DHT22;10093;48.148;8.542;2023-05-10T13:28:41;15.50;99.90
19862;DHT22;10093;48.148;8.542;2023-05-10T13:31:07;15.40;99.90
19862;DHT22;10093;48.148;8.542;2023-05-10T13:33:33;15.60;99.90
19862;DHT22;10093;48.148;8.542;2023-05-10T13:35:58;16.20;99.90
19862;DHT22;10093;48.148;8.542;2023-05-10T13:38:24;16.40;99.90
19862;DHT22;10093;48.148;8.542;2023-05-10T13:40:50;16.90;99.90
19862;DHT22;10093;48.148;8.542;2023-05-10T13:43:18;17.70;99.90
19862;DHT22;10093;48.148;8.542;2023-05-10T13:45:44;18.50;99.90
19862;DHT22;10093;48.148;8.542;2023-05-10T13:48:09;18.50;99.90
19862;DHT22;10093;48.148;8.542;2023-05-10T13:50:35;18.50;99.90
19862;DHT22;10093;48.148;8.542;2023-05-10T13:53:01;18.80;99.90
19862;DHT22;10093;48.148;8.542;2023-05-10T13:55:26;18.90;99.90
19862;DHT22;10093;48.148;8.542;2023-05-10T13:57:52;18.30;99.90
19862;DHT22;10093;48.148;8.542;2023-05-10T14:00:18;18.20;99.90
19862;DHT22;10093;48.148;8.542;2023-05-10T14:02:43;17.90;99.90
19862;DHT22;10093;48.148;8.542;2023-05-10T14:05:09;16.80;99.90
19862;DHT22;10093;48.148;8.542;2023-05-10T14:07:34;16.50;99.90
19862;DHT22;10093;48.148;8.542;2023-05-10T14:10:00;16.10;99.90
19862;DHT22;10093;48.148;8.542;2023-05-10T14:12:26;15.70;99.90
19862;DHT22;10093;48.148;8.542;2023-05-10T14:14:52;15.30;99.90
19862;DHT22;10093;48.148;8.542;2023-05-10T14:17:18;14.90;99.90
19862;DHT22;10093;48.148;8.542;2023-05-10T14:19:44;14.90;99.90
19862;DHT22;10093;48.148;8.542;2023-05-10T14:22:10;14.80;99.90
19862;DHT22;10093;48.148;8.542;2023-05-10T14:24:35;14.70;99.90
19862;DHT22;10093;48.148;8.542;2023-05-10T14:27:01;14.80;99.90
19862;DHT22;10093;48.148;8.542;2023-05-10T14:29:27;14.90;99.90
19862;DHT22;10093;48.148;8.542;2023-05-10T14:31:52;15.00;99.90
19862;DHT22;10093;48.148;8.542;2023-05-10T14:34:18;14.90;99.90
19862;DHT22;10093;48.148;8.542;2023-05-10T14:36:43;15.00;99.90
19862;DHT22;10093;48.148;8.542;2023-05-10T14:39:09;15.60;99.90
19862;DHT22;10093;48.148;8.542;2023-05-10T14:41:35;16.20;99.90
19862;DHT22;10093;48.148;8.542;2023-05-10T14:44:01;17.00;99.90
19862;DHT22;10093;48.148;8.542;2023-05-10T14:46:28;16.30;99.90
19862;DHT22;10093;48.148;8.542;2023-05-10T14:48:55;16.90;99.90
19862;DHT22;10093;48.148;8.542;2023-05-10T14:51:20;17.20;99.90
19862;DHT22;10093;48.148;8.542;2023-05-10T14:53:48;17.30;99.90
19862;DHT22;10093;48.148;8.542;2023-05-10T14:56:14;18.00;99.90
19862;DHT22;10093;48.148;8.542;2023-05-10T14:58:39;18.20;99.90
19862;DHT22;10093;48.148;8.542;2023-05-10T15:01:05;18.50;99.90
19862;DHT22;10093;48.148;8.542;2023-05-10T15:03:31;18.30;99.90
19862;DHT22;10093;48.148;8.542;2023-05-10T15:05:56;17.40;99.90
19862;DHT22;10093;48.148;8.542;2023-05-10T15:08:23;17.20;99.90
19862;DHT22;10093;48.148;8.542;2023-05-10T15:10:50;16.80;99.90
19862;DHT22;10093;48.148;8.542;2023-05-10T15:13:16;16.90;99.90
19862;DHT22;10093;48.148;8.542;2023-05-10T15:15:42;17.10;99.90
19862;DHT22;10093;48.148;8.542;2023-05-10T15:18:09;17.20;99.90
19862;DHT22;10093;48.148;8.542;2023-05-10T15:20:34;17.50;99.90
19862;DHT22;10093;48.148;8.542;2023-05-10T15:23:00;17.20;99.90
19862;DHT22;10093;48.148;8.542;2023-05-10T15:25:26;16.80;99.90
19862;DHT22;10093;48.148;8.542;2023-05-10T15:27:53;16.70;99.90
19862;DHT22;10093;48.148;8.542;2023-05-10T15:30:18;16.60;99.90
19862;DHT22;10093;48.148;8.542;2023-05-10T15:32:44;16.70;99.90
19862;DHT22;10093;48.148;8.542;2023-05-10T15:35:10;16.80;99.90
19862;DHT22;10093;48.148;8.542;2023-05-10T15:37:36;16.70;99.90
19862;DHT22;10093;48.148;8.542;2023-05-10T15:40:03;16.50;99.90
19862;DHT22;10093;48.148;8.542;2023-05-10T15:42:29;16.50;99.90
19862;DHT22;10093;48.148;8.542;2023-05-10T15:44:56;16.30;99.90
19862;DHT22;10093;48.148;8.542;2023-05-10T15:47:21;16.20;99.90
19862;DHT22;10093;48.148;8.542;2023-05-10T15:49:47;16.00;99.90
19862;DHT22;10093;48.148;8.542;2023-05-10T15:52:13;16.10;99.90
19862;DHT22;10093;48.148;8.542;2023-05-10T15:54:38;16.20;99.90
19862;DHT22;10093;48.148;8.542;2023-05-10T15:57:04;16.30;99.90
19862;DHT22;10093;48.148;8.542;2023-05-10T15:59:30;16.20;99.90
19862;DHT22;10093;48.148;8.542;2023-05-10T16:01:56;15.70;99.90
19862;DHT22;10093;48.148;8.542;2023-05-10T16:04:22;15.70;99.90
19862;DHT22;10093;48.148;8.542;2023-05-10T16:06:48;15.70;99.90